createdAt,value
2023-01-28T00:00:34.243Z,25.7
2023-01-28T00:05:57.215Z,25.7
2023-01-28T00:11:19.577Z,25.7
2023-01-28T00:16:42.365Z,25.6
2023-01-28T00:22:04.889Z,25.6
2023-01-28T00:27:28.138Z,25.6
2023-01-28T00:32:51.136Z,25.6
2023-01-28T00:38:13.857Z,25.6
2023-01-28T00:43:36.577Z,25.6
2023-01-28T00:54:06.260Z,25.6
2023-01-28T00:59:29.304Z,25.6
2023-01-28T01:04:54.191Z,25.6
2023-01-28T01:10:16.990Z,25.5
2023-01-28T01:15:39.957Z,25.5
2023-01-28T01:21:03.260Z,25.5
2023-01-28T01:26:24.802Z,25.4
2023-01-28T01:31:47.374Z,25.5
2023-01-28T01:37:10.963Z,25.4
2023-01-28T01:42:18.530Z,25.4
2023-01-28T01:47:41.923Z,25.4
2023-01-28T01:52:48.812Z,25.4
2023-01-28T01:58:11.598Z,25.4
2023-01-28T02:03:34.630Z,25.4
2023-01-28T02:08:41.613Z,25.4
2023-01-28T02:14:04.526Z,25.8
2023-01-28T02:19:19.955Z,26.3
2023-01-28T02:24:26.983Z,26.9
2023-01-28T02:29:34.743Z,27.6
2023-01-28T02:34:41.845Z,28.5
2023-01-28T02:39:33.908Z,29.3
2023-01-28T02:44:40.983Z,30.1
2023-01-28T02:49:17.406Z,30.9
2023-01-28T02:54:08.512Z,31.6
2023-01-28T02:59:15.531Z,32.3
2023-01-28T03:04:23.463Z,32.9
2023-01-28T03:09:30.922Z,33.6
2023-01-28T03:14:53.337Z,34.3
2023-01-28T03:20:15.816Z,35
2023-01-28T03:25:37.997Z,35.8
2023-01-28T03:31:01.870Z,36.4
2023-01-28T03:36:08.911Z,37
2023-01-28T03:41:16.051Z,37.3
2023-01-28T03:46:23.578Z,37.4
2023-01-28T03:51:46.670Z,37.6
2023-01-28T03:57:11.056Z,37.6
2023-01-28T04:02:33.889Z,37.7
2023-01-28T04:07:55.950Z,37.7
2023-01-28T04:12:31.559Z,37.7
2023-01-28T04:17:23.000Z,37.7
2023-01-28T04:22:14.254Z,37.7
2023-01-28T04:27:21.479Z,37.7
2023-01-28T04:32:44.577Z,37.7
2023-01-28T04:38:06.800Z,37.7
2023-01-28T04:43:29.077Z,37.7
2023-01-28T04:53:58.775Z,37.6
2023-01-28T04:59:21.240Z,37.6
2023-01-28T05:04:44.202Z,37.6
2023-01-28T05:10:06.235Z,37.6
2023-01-28T05:15:28.919Z,37.6
2023-01-28T05:20:51.840Z,37.6
2023-01-28T05:26:14.147Z,37.5
2023-01-28T05:31:36.687Z,37.5
2023-01-28T05:36:59.221Z,37.4
2023-01-28T05:42:21.416Z,37.4
2023-01-28T05:47:45.777Z,37.4
2023-01-28T05:58:15.532Z,37.4
2023-01-28T06:03:38.810Z,37.3
2023-01-28T06:08:46.537Z,37.3
2023-01-28T06:13:53.484Z,37.3
2023-01-28T06:19:16.200Z,37.3
2023-01-28T06:24:38.432Z,37.3
2023-01-28T06:29:44.683Z,37.2
2023-01-28T06:34:52.270Z,37.1
2023-01-28T06:39:43.866Z,37.1
2023-01-28T06:44:50.911Z,37.1
2023-01-28T06:50:16.516Z,37.1
2023-01-28T06:55:41.484Z,37
2023-01-28T07:01:04.507Z,37
2023-01-28T07:06:27.318Z,36.9
2023-01-28T07:11:49.975Z,36.9
2023-01-28T07:17:12.852Z,36.9
2023-01-28T07:22:35.466Z,36.9
2023-01-28T07:28:00.905Z,36.9
2023-01-28T07:33:24.295Z,36.9
2023-01-28T07:38:46.692Z,36.8
2023-01-28T07:44:08.891Z,36.8
2023-01-28T07:49:15.836Z,36.8
2023-01-28T07:54:38.274Z,36.8
2023-01-28T08:00:03.531Z,36.7
2023-01-28T08:05:26.493Z,36.6
2023-01-28T08:10:49.567Z,36.6
2023-01-28T08:16:11.843Z,36.6
2023-01-28T08:21:33.960Z,36.5
2023-01-28T08:26:57.349Z,36.4
2023-01-28T08:32:20.546Z,36.3
2023-01-28T08:37:42.974Z,36.3
2023-01-28T08:43:04.932Z,36.3
2023-01-28T08:48:30.350Z,36.3
2023-01-28T08:53:55.294Z,36.3
2023-01-28T08:59:20.797Z,36.2
2023-01-28T09:05:01.909Z,36.2
2023-01-28T09:10:24.055Z,36.1
2023-01-28T09:15:46.924Z,36.1
2023-01-28T09:21:11.186Z,36.1
2023-01-28T09:26:34.491Z,36
2023-01-28T09:31:43.898Z,36
2023-01-28T09:37:06.779Z,35.9
2023-01-28T09:42:29.575Z,35.5
2023-01-28T09:47:52.219Z,34.6
2023-01-28T09:53:15.139Z,34.9
2023-01-28T09:58:38.650Z,35.1
2023-01-28T10:04:02.821Z,35.1
2023-01-28T10:09:25.539Z,35.2
2023-01-28T10:14:48.617Z,35.1
2023-01-28T10:20:28.243Z,35.1
2023-01-28T10:25:50.606Z,35
2023-01-28T10:31:13.445Z,35
2023-01-28T10:36:36.565Z,35
2023-01-28T10:42:13.164Z,34.9
2023-01-28T10:47:35.497Z,34.8
2023-01-28T10:52:58.494Z,34.8
2023-01-28T10:58:05.958Z,34.7
2023-01-28T11:03:29.514Z,34.6
2023-01-28T11:14:29.791Z,34.6
2023-01-28T11:19:36.954Z,34.4
2023-01-28T11:24:59.459Z,34.4
2023-01-28T11:30:22.018Z,34.4
2023-01-28T11:35:46.499Z,34.4
2023-01-28T11:41:11.209Z,34.3
2023-01-28T11:46:37.855Z,34.2
2023-01-28T11:52:00.881Z,34
2023-01-28T11:57:53.178Z,34
2023-01-28T12:03:16.655Z,33.9
2023-01-28T12:08:39.559Z,33.9
2023-01-28T12:14:02.302Z,33.9
2023-01-28T12:19:09.338Z,33.8
2023-01-28T12:24:32.110Z,33.8
2023-01-28T12:29:55.394Z,33.7
2023-01-28T12:35:19.156Z,33.6
2023-01-28T12:40:41.787Z,33.6
2023-01-28T12:46:04.536Z,33.5
2023-01-28T12:51:27.540Z,33.4
2023-01-28T12:56:50.164Z,33.4
2023-01-28T13:02:13.700Z,33.4
2023-01-28T13:07:36.658Z,33.3
2023-01-28T13:12:59.286Z,33.3
2023-01-28T13:18:32.907Z,33.2
2023-01-28T13:24:01.985Z,33.1
2023-01-28T13:29:27.124Z,33.1
2023-01-28T13:34:50.256Z,33
2023-01-28T13:40:12.615Z,32.9
2023-01-28T13:45:35.166Z,32.9
2023-01-28T13:50:58.075Z,32.9
2023-01-28T13:56:34.772Z,32.8
2023-01-28T14:01:43.953Z,32.7
2023-01-28T14:07:07.436Z,32.6
2023-01-28T14:12:31.080Z,32.5
2023-01-28T14:17:54.240Z,32.5
2023-01-28T14:23:17.491Z,32.4
2023-01-28T14:28:40.494Z,32.4
2023-01-28T14:34:06.292Z,32.3
2023-01-28T14:39:29.298Z,32.1
2023-01-28T14:44:36.835Z,32.1
2023-01-28T14:50:01.092Z,32
2023-01-28T14:55:24.059Z,31.9
2023-01-28T15:00:49.373Z,31.9
2023-01-28T15:06:26.595Z,31.9
2023-01-28T15:11:49.628Z,31.8
2023-01-28T15:17:12.787Z,31.8
2023-01-28T15:22:35.721Z,31.7
2023-01-28T15:28:00.716Z,31.7
2023-01-28T15:33:25.608Z,31.6
2023-01-28T15:38:48.158Z,31.5
2023-01-28T15:44:11.255Z,31.5
2023-01-28T15:49:34.395Z,31.4
2023-01-28T15:54:57.205Z,30.9
2023-01-28T16:00:23.838Z,30.3
2023-01-28T16:05:31.760Z,29.4
2023-01-28T16:10:57.052Z,28.8
2023-01-28T16:16:20.850Z,28.1
2023-01-28T16:21:28.964Z,27.6
2023-01-28T16:26:53.036Z,27.3
2023-01-28T16:32:18.745Z,27
2023-01-28T16:42:18.391Z,26.6
2023-01-28T16:47:48.687Z,26.5
2023-01-28T16:53:14.537Z,26.3
2023-01-28T16:58:57.048Z,26.2
2023-01-28T17:04:21.437Z,26
2023-01-28T17:09:44.557Z,25.8
2023-01-28T17:15:08.585Z,25.4
2023-01-28T17:20:17.778Z,25
2023-01-28T17:25:26.443Z,24.6
2023-01-28T17:30:51.551Z,24.3
2023-01-28T17:36:15.901Z,24
2023-01-28T17:41:40.057Z,23.9
2023-01-28T17:47:06.757Z,23.7
2023-01-28T17:52:35.438Z,23.6
2023-01-28T17:58:04.447Z,23.4
2023-01-28T18:03:38.324Z,23.4
2023-01-28T18:09:05.200Z,23.3
2023-01-28T18:14:32.924Z,23.2
2023-01-28T18:19:59.890Z,23.2
2023-01-28T18:25:39.060Z,23.1
2023-01-28T18:31:14.921Z,23.1
2023-01-28T18:36:30.556Z,23.1
2023-01-28T18:41:44.420Z,23
2023-01-28T18:47:04.544Z,22.9
2023-01-28T18:52:54.312Z,22.9
2023-01-28T18:58:35.604Z,22.9
2023-01-28T19:04:15.941Z,22.9
2023-01-28T19:15:00.326Z,22.8
2023-01-28T19:20:36.907Z,22.8
2023-01-28T19:26:24.047Z,22.8
2023-01-28T19:32:03.716Z,22.8
2023-01-28T19:37:40.205Z,22.8
2023-01-28T19:43:14.393Z,22.7
2023-01-28T19:48:34.230Z,22.7
2023-01-28T19:53:53.651Z,22.7
2023-01-28T19:59:11.615Z,22.7
2023-01-28T20:04:35.649Z,22.7
2023-01-28T20:10:23.581Z,22.6
2023-01-28T20:16:02.386Z,22.6
2023-01-28T20:21:42.615Z,22.6
2023-01-28T20:27:17.818Z,22.6
2023-01-28T20:33:11.977Z,22.6
2023-01-28T20:38:48.124Z,22.4
2023-01-28T20:49:44.796Z,22.4
2023-01-28T20:55:15.088Z,22.8
2023-01-28T21:00:48.300Z,23.5
2023-01-28T21:11:25.874Z,25.2
2023-01-28T21:16:36.730Z,26.1
2023-01-28T21:21:28.496Z,26.7
2023-01-28T21:26:36.678Z,27.1
2023-01-28T21:31:44.057Z,27.4
2023-01-28T21:37:09.444Z,27.6
2023-01-28T21:42:36.638Z,27.8
2023-01-28T21:47:32.408Z,27.9
2023-01-28T21:52:40.061Z,27.9
2023-01-28T21:57:51.648Z,28
2023-01-28T22:02:59.168Z,28
2023-01-28T22:08:06.123Z,28
2023-01-28T22:12:58.082Z,28
2023-01-28T22:17:49.947Z,28
2023-01-28T22:23:00.135Z,28
2023-01-28T22:28:07.299Z,28
2023-01-28T22:33:15.236Z,27.9
2023-01-28T22:38:06.770Z,27.9
2023-01-28T22:43:13.537Z,27.9
2023-01-28T22:48:21.284Z,27.9
2023-01-28T22:53:27.488Z,27.9
2023-01-28T22:58:34.381Z,27.9
2023-01-28T23:09:04.222Z,27.9
2023-01-28T23:14:26.353Z,27.9
2023-01-28T23:19:49.567Z,27.9
2023-01-28T23:24:56.206Z,27.9
2023-01-28T23:29:48.705Z,27.9
2023-01-28T23:34:56.348Z,27.9
2023-01-28T23:40:03.158Z,27.9
2023-01-28T23:45:25.658Z,27.9
2023-01-28T23:50:54.372Z,27.9
2023-01-28T23:56:16.237Z,27.9
